Terminal Aerodrome Forecast
Issued by NWS

Home | Current Version | Previous Version | Text Only | Print | Product List | Glossary On
Versions: 1 2 3 4 5 6 7 8 9 10 11 12 13 14 15 16
000
FTUS43 KICT 191738
TAFCNU
TAF
KCNU 191738Z 1918/2018 VRB03KT P6SM VCSH SCT012 OVC100
     FM192000 VRB05KT P6SM VCTS OVC050CB
     FM192200 34015G25KT P6SM VCSH SCT015 BKN040
     FM200300 31010KT P6SM SCT080=

USA.gov is the U.S. government's official web portal to all federal, state and local government web resources and services.